sensor_id;sensor_type;location;lat;lon;timestamp;pressure;altitude;pressure_sealevel;temperature;humidity
14117;BME280;7137;51.436;6.544;2023-05-24T00:00:24;101988.63;;;9.59;80.09
14117;BME280;7137;51.436;6.544;2023-05-24T00:03:28;101988.69;;;9.48;80.21
14117;BME280;7137;51.436;6.544;2023-05-24T00:06:30;101996.53;;;9.47;80.57
14117;BME280;7137;51.436;6.544;2023-05-24T00:09:34;101995.66;;;9.48;79.86
14117;BME280;7137;51.436;6.544;2023-05-24T00:12:35;101994.81;;;9.41;81.46
14117;BME280;7137;51.436;6.544;2023-05-24T00:15:37;101988.69;;;9.50;80.97
14117;BME280;7137;51.436;6.544;2023-05-24T00:18:40;101986.13;;;9.44;82.09
14117;BME280;7137;51.436;6.544;2023-05-24T00:21:46;101983.53;;;9.39;82.01
14117;BME280;7137;51.436;6.544;2023-05-24T00:24:48;101982.66;;;9.43;81.91
14117;BME280;7137;51.436;6.544;2023-05-24T00:27:49;101972.22;;;9.40;81.59
14117;BME280;7137;51.436;6.544;2023-05-24T00:30:51;101984.44;;;9.35;82.93
14117;BME280;7137;51.436;6.544;2023-05-24T00:33:54;101971.34;;;9.41;81.90
14117;BME280;7137;51.436;6.544;2023-05-24T00:36:55;101968.81;;;9.32;82.90
14117;BME280;7137;51.436;6.544;2023-05-24T00:39:57;101969.81;;;9.05;83.99
14117;BME280;7137;51.436;6.544;2023-05-24T00:42:59;101968.91;;;9.14;84.20
14117;BME280;7137;51.436;6.544;2023-05-24T00:46:17;101961.97;;;9.10;84.14
14117;BME280;7137;51.436;6.544;2023-05-24T00:49:22;101967.25;;;9.02;84.43
14117;BME280;7137;51.436;6.544;2023-05-24T00:52:24;101956.75;;;9.10;83.82
14117;BME280;7137;51.436;6.544;2023-05-24T00:55:26;101959.41;;;8.99;84.60
14117;BME280;7137;51.436;6.544;2023-05-24T00:58:27;101961.94;;;9.17;83.57
14117;BME280;7137;51.436;6.544;2023-05-24T01:01:30;101961.97;;;9.16;84.66
14117;BME280;7137;51.436;6.544;2023-05-24T01:04:36;101956.00;;;8.83;85.22
14117;BME280;7137;51.436;6.544;2023-05-24T01:07:44;101959.44;;;9.02;85.31
14117;BME280;7137;51.436;6.544;2023-05-24T01:10:55;101961.16;;;8.99;85.85
14117;BME280;7137;51.436;6.544;2023-05-24T01:14:05;101959.44;;;8.95;85.30
14117;BME280;7137;51.436;6.544;2023-05-24T01:17:18;101963.78;;;8.97;85.44
14117;BME280;7137;51.436;6.544;2023-05-24T01:20:23;101956.81;;;8.98;86.29
14117;BME280;7137;51.436;6.544;2023-05-24T01:23:31;101954.19;;;9.01;85.65
14117;BME280;7137;51.436;6.544;2023-05-24T01:26:42;101950.81;;;8.88;86.19
14117;BME280;7137;51.436;6.544;2023-05-24T01:29:49;101945.59;;;8.89;86.19
14117;BME280;7137;51.436;6.544;2023-05-24T01:32:53;101954.28;;;8.82;87.09
14117;BME280;7137;51.436;6.544;2023-05-24T01:35:55;101942.97;;;8.85;86.49
14117;BME280;7137;51.436;6.544;2023-05-24T01:38:56;101942.88;;;9.06;84.85
14117;BME280;7137;51.436;6.544;2023-05-24T01:42:10;101939.38;;;9.12;85.08
14117;BME280;7137;51.436;6.544;2023-05-24T01:45:19;101932.44;;;9.15;85.40
14117;BME280;7137;51.436;6.544;2023-05-24T01:48:29;101928.28;;;8.76;87.03
14117;BME280;7137;51.436;6.544;2023-05-24T01:51:39;101932.50;;;8.97;85.94
14117;BME280;7137;51.436;6.544;2023-05-24T01:54:44;101937.72;;;8.96;86.45
14117;BME280;7137;51.436;6.544;2023-05-24T01:57:49;101936.03;;;8.91;85.89
14117;BME280;7137;51.436;6.544;2023-05-24T02:00:53;101935.28;;;8.60;87.67
14117;BME280;7137;51.436;6.544;2023-05-24T02:03:56;101927.47;;;8.54;88.72
14117;BME280;7137;51.436;6.544;2023-05-24T02:06:57;101929.16;;;8.69;87.90
14117;BME280;7137;51.436;6.544;2023-05-24T02:09:59;101912.75;;;8.47;89.80
14117;BME280;7137;51.436;6.544;2023-05-24T02:13:01;101926.56;;;8.68;89.13
14117;BME280;7137;51.436;6.544;2023-05-24T02:16:04;101921.34;;;8.69;88.04
14117;BME280;7137;51.436;6.544;2023-05-24T02:19:06;101918.75;;;8.69;88.26
14117;BME280;7137;51.436;6.544;2023-05-24T02:22:08;101919.69;;;8.53;89.22
14117;BME280;7137;51.436;6.544;2023-05-24T02:25:09;101926.66;;;8.48;90.08
14117;BME280;7137;51.436;6.544;2023-05-24T02:28:11;101932.75;;;8.13;91.90
14117;BME280;7137;51.436;6.544;2023-05-24T02:31:14;101932.78;;;8.06;92.41
14117;BME280;7137;51.436;6.544;2023-05-24T02:34:16;101926.72;;;8.05;92.28
14117;BME280;7137;51.436;6.544;2023-05-24T02:37:17;101933.66;;;7.98;93.58
14117;BME280;7137;51.436;6.544;2023-05-24T02:40:19;101933.63;;;8.18;92.33
14117;BME280;7137;51.436;6.544;2023-05-24T02:43:21;101946.63;;;8.32;91.12
14117;BME280;7137;51.436;6.544;2023-05-24T02:46:24;101943.13;;;8.44;90.12
14117;BME280;7137;51.436;6.544;2023-05-24T02:49:25;101951.00;;;8.02;91.81
14117;BME280;7137;51.436;6.544;2023-05-24T02:52:27;101948.34;;;8.16;91.00
14117;BME280;7137;51.436;6.544;2023-05-24T02:55:29;101949.25;;;8.11;91.44
14117;BME280;7137;51.436;6.544;2023-05-24T02:58:31;101939.69;;;8.16;92.24
14117;BME280;7137;51.436;6.544;2023-05-24T03:01:34;101945.75;;;8.41;90.43
14117;BME280;7137;51.436;6.544;2023-05-24T03:04:36;101948.38;;;7.98;92.35
14117;BME280;7137;51.436;6.544;2023-05-24T03:07:37;101939.72;;;8.19;91.25
14117;BME280;7137;51.436;6.544;2023-05-24T03:10:40;101942.31;;;8.07;92.17
14117;BME280;7137;51.436;6.544;2023-05-24T03:13:41;101941.44;;;8.09;92.74
14117;BME280;7137;51.436;6.544;2023-05-24T03:16:44;101935.34;;;8.15;92.72
14117;BME280;7137;51.436;6.544;2023-05-24T03:19:46;101933.63;;;8.11;92.57
14117;BME280;7137;51.436;6.544;2023-05-24T03:22:47;101927.56;;;7.98;92.62
14117;BME280;7137;51.436;6.544;2023-05-24T03:25:49;101929.34;;;7.90;93.58
14117;BME280;7137;51.436;6.544;2023-05-24T03:28:51;101923.28;;;7.77;94.23
14117;BME280;7137;51.436;6.544;2023-05-24T03:31:54;101933.66;;;7.97;94.30
14117;BME280;7137;51.436;6.544;2023-05-24T03:34:56;101926.72;;;7.96;94.07
14117;BME280;7137;51.436;6.544;2023-05-24T03:37:59;101930.22;;;7.89;93.64
14117;BME280;7137;51.436;6.544;2023-05-24T03:41:01;101933.69;;;7.77;95.20
14117;BME280;7137;51.436;6.544;2023-05-24T03:44:03;101935.38;;;7.86;95.52
14117;BME280;7137;51.436;6.544;2023-05-24T03:47:06;101935.38;;;8.04;94.56
14117;BME280;7137;51.436;6.544;2023-05-24T03:50:08;101927.56;;;7.98;95.37
14117;BME280;7137;51.436;6.544;2023-05-24T03:53:10;101932.78;;;8.09;94.00
14117;BME280;7137;51.436;6.544;2023-05-24T03:56:11;101935.38;;;7.87;96.58
14117;BME280;7137;51.436;6.544;2023-05-24T03:59:13;101931.06;;;7.89;97.01
14117;BME280;7137;51.436;6.544;2023-05-24T04:02:16;101931.91;;;7.96;97.18
14117;BME280;7137;51.436;6.544;2023-05-24T04:05:18;101931.03;;;8.09;96.01
14117;BME280;7137;51.436;6.544;2023-05-24T04:08:19;101934.53;;;7.96;96.57
14117;BME280;7137;51.436;6.544;2023-05-24T04:11:21;101931.00;;;8.32;96.18
14117;BME280;7137;51.436;6.544;2023-05-24T04:14:23;101930.91;;;8.73;93.15
14117;BME280;7137;51.436;6.544;2023-05-24T04:17:26;101935.09;;;9.02;90.96
14117;BME280;7137;51.436;6.544;2023-05-24T04:20:29;101942.91;;;9.03;91.60
14117;BME280;7137;51.436;6.544;2023-05-24T04:23:31;101945.47;;;9.15;90.02
14117;BME280;7137;51.436;6.544;2023-05-24T04:26:33;101944.50;;;9.30;89.44
14117;BME280;7137;51.436;6.544;2023-05-24T04:29:34;101948.81;;;9.33;89.19
14117;BME280;7137;51.436;6.544;2023-05-24T04:32:37;101947.78;;;9.55;88.10
14117;BME280;7137;51.436;6.544;2023-05-24T04:35:39;101939.00;;;9.71;87.15
14117;BME280;7137;51.436;6.544;2023-05-24T04:38:41;101934.56;;;9.78;86.66
14117;BME280;7137;51.436;6.544;2023-05-24T04:41:44;101947.44;;;9.98;86.30
14117;BME280;7137;51.436;6.544;2023-05-24T04:44:46;101957.75;;;10.11;85.62
14117;BME280;7137;51.436;6.544;2023-05-24T04:47:49;101964.72;;;10.11;85.99
14117;BME280;7137;51.436;6.544;2023-05-24T04:50:51;101963.78;;;10.18;84.59
14117;BME280;7137;51.436;6.544;2023-05-24T04:53:53;101968.41;;;9.89;86.42
14117;BME280;7137;51.436;6.544;2023-05-24T04:56:54;101978.84;;;9.89;87.04
14117;BME280;7137;51.436;6.544;2023-05-24T04:59:56;101983.22;;;9.82;87.79
14117;BME280;7137;51.436;6.544;2023-05-24T05:02:59;101978.19;;;9.61;88.43
14117;BME280;7137;51.436;6.544;2023-05-24T05:06:01;101982.59;;;9.49;90.11
14117;BME280;7137;51.436;6.544;2023-05-24T05:09:03;101988.56;;;9.71;88.80
14117;BME280;7137;51.436;6.544;2023-05-24T05:12:04;101988.47;;;9.79;88.93
14117;BME280;7137;51.436;6.544;2023-05-24T05:15:07;101980.50;;;9.96;87.48
14117;BME280;7137;51.436;6.544;2023-05-24T05:18:10;101980.34;;;10.17;86.83
14117;BME280;7137;51.436;6.544;2023-05-24T05:21:12;101993.38;;;10.19;87.20
14117;BME280;7137;51.436;6.544;2023-05-24T05:24:14;101988.03;;;10.35;87.42
14117;BME280;7137;51.436;6.544;2023-05-24T05:27:16;101989.53;;;10.59;85.42
14117;BME280;7137;51.436;6.544;2023-05-24T05:30:17;101990.13;;;10.84;85.59
14117;BME280;7137;51.436;6.544;2023-05-24T05:33:20;101991.47;;;11.74;83.16
14117;BME280;7137;51.436;6.544;2023-05-24T05:36:22;101975.69;;;12.31;77.83
14117;BME280;7137;51.436;6.544;2023-05-24T05:39:23;101974.09;;;13.51;73.87
14117;BME280;7137;51.436;6.544;2023-05-24T05:42:25;101979.78;;;14.39;69.38
14117;BME280;7137;51.436;6.544;2023-05-24T05:45:27;101990.09;;;15.09;67.16
14117;BME280;7137;51.436;6.544;2023-05-24T05:48:30;101983.66;;;14.59;66.98
14117;BME280;7137;51.436;6.544;2023-05-24T05:51:31;101988.53;;;16.14;62.02
14117;BME280;7137;51.436;6.544;2023-05-24T05:54:33;101987.47;;;17.39;57.35
14117;BME280;7137;51.436;6.544;2023-05-24T05:57:36;101981.97;;;17.22;56.00
14117;BME280;7137;51.436;6.544;2023-05-24T06:00:39;102000.84;;;19.21;50.17
14117;BME280;7137;51.436;6.544;2023-05-24T06:03:42;102000.06;;;20.44;47.21
14117;BME280;7137;51.436;6.544;2023-05-24T06:06:44;102006.72;;;21.97;44.07
14117;BME280;7137;51.436;6.544;2023-05-24T06:09:48;101991.50;;;23.01;40.12
14117;BME280;7137;51.436;6.544;2023-05-24T06:12:50;101999.34;;;23.73;38.54
14117;BME280;7137;51.436;6.544;2023-05-24T06:15:51;101995.03;;;23.97;38.05
14117;BME280;7137;51.436;6.544;2023-05-24T06:18:54;102000.72;;;24.18;38.32
14117;BME280;7137;51.436;6.544;2023-05-24T06:21:56;102012.56;;;25.41;35.58
14117;BME280;7137;51.436;6.544;2023-05-24T06:24:57;102022.91;;;24.96;34.96
14117;BME280;7137;51.436;6.544;2023-05-24T06:28:00;102034.63;;;22.49;40.14
14117;BME280;7137;51.436;6.544;2023-05-24T06:31:02;102036.03;;;20.50;45.05
14117;BME280;7137;51.436;6.544;2023-05-24T06:34:05;102024.06;;;20.24;46.50
14117;BME280;7137;51.436;6.544;2023-05-24T06:37:06;102015.59;;;20.17;47.69
14117;BME280;7137;51.436;6.544;2023-05-24T06:40:10;102027.81;;;18.71;50.72
14117;BME280;7137;51.436;6.544;2023-05-24T06:43:12;102024.75;;;19.38;48.97
14117;BME280;7137;51.436;6.544;2023-05-24T06:46:14;102024.97;;;18.55;52.05
14117;BME280;7137;51.436;6.544;2023-05-24T06:49:17;102016.50;;;22.56;42.12
14117;BME280;7137;51.436;6.544;2023-05-24T06:52:19;102010.81;;;23.60;39.27
14117;BME280;7137;51.436;6.544;2023-05-24T06:55:21;102013.44;;;26.24;35.20
14117;BME280;7137;51.436;6.544;2023-05-24T06:58:22;102013.19;;;24.44;37.01
14117;BME280;7137;51.436;6.544;2023-05-24T07:01:24;102004.75;;;24.50;37.10
14117;BME280;7137;51.436;6.544;2023-05-24T07:04:28;102013.13;;;22.83;41.06
14117;BME280;7137;51.436;6.544;2023-05-24T07:07:29;102009.44;;;23.40;39.48
14117;BME280;7137;51.436;6.544;2023-05-24T07:10:31;102009.59;;;22.38;41.00
14117;BME280;7137;51.436;6.544;2023-05-24T07:13:33;101993.38;;;19.84;46.37
14117;BME280;7137;51.436;6.544;2023-05-24T07:16:34;102003.25;;;19.25;49.07
14117;BME280;7137;51.436;6.544;2023-05-24T07:19:37;101998.31;;;16.10;59.79
14117;BME280;7137;51.436;6.544;2023-05-24T07:22:39;102010.13;;;15.42;64.38
14117;BME280;7137;51.436;6.544;2023-05-24T07:25:40;102000.53;;;15.12;64.69
14117;BME280;7137;51.436;6.544;2023-05-24T07:28:42;102002.81;;;14.95;66.40
14117;BME280;7137;51.436;6.544;2023-05-24T07:31:44;102009.16;;;14.55;67.67
14117;BME280;7137;51.436;6.544;2023-05-24T07:34:46;102009.84;;;14.62;67.02
14117;BME280;7137;51.436;6.544;2023-05-24T07:37:49;102000.78;;;15.32;65.60
14117;BME280;7137;51.436;6.544;2023-05-24T07:40:51;102002.25;;;15.13;64.47
14117;BME280;7137;51.436;6.544;2023-05-24T07:43:53;102006.88;;;15.05;63.47
14117;BME280;7137;51.436;6.544;2023-05-24T07:46:54;102013.41;;;14.26;67.02
14117;BME280;7137;51.436;6.544;2023-05-24T07:49:57;102004.75;;;14.21;68.34
14117;BME280;7137;51.436;6.544;2023-05-24T07:52:59;102005.66;;;14.22;69.54
14117;BME280;7137;51.436;6.544;2023-05-24T07:56:00;102010.41;;;14.06;70.95
14117;BME280;7137;51.436;6.544;2023-05-24T07:59:02;102008.19;;;14.25;69.53
14117;BME280;7137;51.436;6.544;2023-05-24T08:02:04;102007.47;;;17.68;58.63
14117;BME280;7137;51.436;6.544;2023-05-24T08:05:10;102010.88;;;20.74;47.00
14117;BME280;7137;51.436;6.544;2023-05-24T08:08:11;102005.28;;;18.00;53.95
14117;BME280;7137;51.436;6.544;2023-05-24T08:11:13;102010.28;;;17.86;54.91
14117;BME280;7137;51.436;6.544;2023-05-24T08:14:14;102000.00;;;16.13;59.10
14117;BME280;7137;51.436;6.544;2023-05-24T08:17:16;102009.75;;;15.27;63.61
14117;BME280;7137;51.436;6.544;2023-05-24T08:20:19;101996.53;;;14.99;64.43
14117;BME280;7137;51.436;6.544;2023-05-24T08:23:21;102001.28;;;14.55;66.66
14117;BME280;7137;51.436;6.544;2023-05-24T08:26:22;101998.72;;;14.18;67.50
14117;BME280;7137;51.436;6.544;2023-05-24T08:29:24;102000.44;;;14.19;69.53
14117;BME280;7137;51.436;6.544;2023-05-24T08:32:25;102001.56;;;14.43;67.87
14117;BME280;7137;51.436;6.544;2023-05-24T08:35:28;102003.72;;;14.29;66.81
14117;BME280;7137;51.436;6.544;2023-05-24T08:38:30;102007.72;;;14.09;66.87
14117;BME280;7137;51.436;6.544;2023-05-24T08:41:32;102001.63;;;14.41;64.64
14117;BME280;7137;51.436;6.544;2023-05-24T08:44:39;102006.66;;;14.83;62.21
14117;BME280;7137;51.436;6.544;2023-05-24T08:47:41;101994.56;;;16.17;60.04
14117;BME280;7137;51.436;6.544;2023-05-24T08:50:45;101991.97;;;16.67;55.74
14117;BME280;7137;51.436;6.544;2023-05-24T08:53:49;101992.00;;;16.41;55.66
14117;BME280;7137;51.436;6.544;2023-05-24T08:56:51;101988.22;;;16.23;56.11
14117;BME280;7137;51.436;6.544;2023-05-24T08:59:53;101983.31;;;16.12;53.96
14117;BME280;7137;51.436;6.544;2023-05-24T09:02:56;101981.44;;;16.41;54.09
14117;BME280;7137;51.436;6.544;2023-05-24T09:06:03;101985.13;;;16.37;55.54
14117;BME280;7137;51.436;6.544;2023-05-24T09:09:06;101980.97;;;16.03;55.69
14117;BME280;7137;51.436;6.544;2023-05-24T09:12:10;101991.19;;;15.87;56.14
14117;BME280;7137;51.436;6.544;2023-05-24T09:15:15;101987.69;;;16.38;55.41
14117;BME280;7137;51.436;6.544;2023-05-24T09:18:16;101982.19;;;16.44;54.62
14117;BME280;7137;51.436;6.544;2023-05-24T09:21:19;101991.19;;;16.63;53.22
14117;BME280;7137;51.436;6.544;2023-05-24T09:24:22;101986.22;;;16.54;54.25
14117;BME280;7137;51.436;6.544;2023-05-24T09:27:23;101984.63;;;16.75;52.66
14117;BME280;7137;51.436;6.544;2023-05-24T09:30:25;101993.59;;;17.40;50.74
14117;BME280;7137;51.436;6.544;2023-05-24T09:33:28;101986.84;;;18.39;49.46
14117;BME280;7137;51.436;6.544;2023-05-24T09:36:32;101985.59;;;18.68;48.01
14117;BME280;7137;51.436;6.544;2023-05-24T09:39:36;101986.72;;;17.58;52.02
14117;BME280;7137;51.436;6.544;2023-05-24T09:42:38;101977.50;;;17.68;50.90
14117;BME280;7137;51.436;6.544;2023-05-24T09:45:41;101981.25;;;16.95;53.06
14117;BME280;7137;51.436;6.544;2023-05-24T09:48:54;101984.75;;;16.47;54.48
14117;BME280;7137;51.436;6.544;2023-05-24T09:51:57;101977.41;;;16.55;55.16
14117;BME280;7137;51.436;6.544;2023-05-24T09:54:59;101977.72;;;16.71;53.69
14117;BME280;7137;51.436;6.544;2023-05-24T09:58:02;101977.34;;;16.07;55.95
14117;BME280;7137;51.436;6.544;2023-05-24T10:01:05;101967.31;;;17.37;54.16
14117;BME280;7137;51.436;6.544;2023-05-24T10:04:07;101970.06;;;17.34;52.63
14117;BME280;7137;51.436;6.544;2023-05-24T10:07:10;101974.78;;;17.26;52.03
14117;BME280;7137;51.436;6.544;2023-05-24T10:10:12;101974.03;;;16.52;55.98
14117;BME280;7137;51.436;6.544;2023-05-24T10:13:14;101977.69;;;16.23;53.27
14117;BME280;7137;51.436;6.544;2023-05-24T10:16:17;101967.75;;;17.48;52.97
14117;BME280;7137;51.436;6.544;2023-05-24T10:19:18;101970.84;;;18.01;51.66
14117;BME280;7137;51.436;6.544;2023-05-24T10:22:23;101976.22;;;17.56;51.14
14117;BME280;7137;51.436;6.544;2023-05-24T10:25:26;101969.56;;;17.24;53.35
14117;BME280;7137;51.436;6.544;2023-05-24T10:28:30;101974.44;;;17.57;50.89
14117;BME280;7137;51.436;6.544;2023-05-24T10:31:33;101970.94;;;17.56;50.36
14117;BME280;7137;51.436;6.544;2023-05-24T10:34:37;101976.66;;;17.89;50.92
14117;BME280;7137;51.436;6.544;2023-05-24T10:37:41;101979.53;;;17.17;52.69
14117;BME280;7137;51.436;6.544;2023-05-24T10:40:43;101972.56;;;17.15;52.25
14117;BME280;7137;51.436;6.544;2023-05-24T10:43:45;101965.97;;;18.33;49.56
14117;BME280;7137;51.436;6.544;2023-05-24T10:47:07;101967.28;;;18.02;49.76
14117;BME280;7137;51.436;6.544;2023-05-24T10:50:16;101972.75;;;17.77;50.42
14117;BME280;7137;51.436;6.544;2023-05-24T10:53:22;101963.09;;;17.31;51.59
14117;BME280;7137;51.436;6.544;2023-05-24T10:56:26;101969.63;;;17.66;49.88
14117;BME280;7137;51.436;6.544;2023-05-24T10:59:30;101956.44;;;18.29;48.73
14117;BME280;7137;51.436;6.544;2023-05-24T11:02:34;101966.31;;;18.05;49.18
14117;BME280;7137;51.436;6.544;2023-05-24T11:05:48;101967.47;;;18.38;47.11
14117;BME280;7137;51.436;6.544;2023-05-24T11:08:59;101963.69;;;17.83;48.27
14117;BME280;7137;51.436;6.544;2023-05-24T11:12:01;101952.41;;;18.00;48.47
14117;BME280;7137;51.436;6.544;2023-05-24T11:15:08;101950.94;;;18.13;48.68
14117;BME280;7137;51.436;6.544;2023-05-24T11:18:13;101961.47;;;18.15;48.96
14117;BME280;7137;51.436;6.544;2023-05-24T11:21:15;101957.50;;;18.04;48.61
14117;BME280;7137;51.436;6.544;2023-05-24T11:24:19;101959.53;;;17.77;47.63
14117;BME280;7137;51.436;6.544;2023-05-24T11:27:22;101952.13;;;18.26;46.51
14117;BME280;7137;51.436;6.544;2023-05-24T11:30:24;101947.03;;;17.81;48.60
14117;BME280;7137;51.436;6.544;2023-05-24T11:33:26;101949.09;;;16.84;52.14
14117;BME280;7137;51.436;6.544;2023-05-24T11:36:28;101954.81;;;16.48;53.08
14117;BME280;7137;51.436;6.544;2023-05-24T11:39:32;101952.44;;;16.41;54.79
14117;BME280;7137;51.436;6.544;2023-05-24T11:42:34;101953.88;;;16.49;53.69
14117;BME280;7137;51.436;6.544;2023-05-24T11:45:38;101950.09;;;16.31;53.55
14117;BME280;7137;51.436;6.544;2023-05-24T11:48:40;101952.72;;;16.08;53.73
14117;BME280;7137;51.436;6.544;2023-05-24T11:51:42;101951.50;;;16.17;54.99
14117;BME280;7137;51.436;6.544;2023-05-24T11:54:45;101954.91;;;15.69;56.00
14117;BME280;7137;51.436;6.544;2023-05-24T11:57:53;101951.41;;;15.68;55.81
14117;BME280;7137;51.436;6.544;2023-05-24T12:00:58;101949.94;;;15.86;55.67
14117;BME280;7137;51.436;6.544;2023-05-24T12:04:01;101948.59;;;15.99;54.94
14117;BME280;7137;51.436;6.544;2023-05-24T12:07:09;101949.72;;;16.19;55.90
14117;BME280;7137;51.436;6.544;2023-05-24T12:10:13;101950.16;;;15.80;56.03
14117;BME280;7137;51.436;6.544;2023-05-24T12:13:19;101941.66;;;15.97;57.91
14117;BME280;7137;51.436;6.544;2023-05-24T12:16:22;101944.97;;;15.77;57.81
14117;BME280;7137;51.436;6.544;2023-05-24T12:19:29;101943.44;;;15.96;56.81
14117;BME280;7137;51.436;6.544;2023-05-24T12:22:33;101945.31;;;15.93;55.67
14117;BME280;7137;51.436;6.544;2023-05-24T12:25:36;101946.84;;;15.73;55.38
14117;BME280;7137;51.436;6.544;2023-05-24T12:28:38;101952.44;;;15.89;56.23
14117;BME280;7137;51.436;6.544;2023-05-24T12:31:40;101951.25;;;16.24;55.03
14117;BME280;7137;51.436;6.544;2023-05-24T12:34:43;101952.47;;;16.14;57.00
14117;BME280;7137;51.436;6.544;2023-05-24T12:37:45;101948.31;;;16.33;55.57
14117;BME280;7137;51.436;6.544;2023-05-24T12:40:49;101939.81;;;16.74;53.86
14117;BME280;7137;51.436;6.544;2023-05-24T12:43:51;101941.13;;;17.09;52.44
14117;BME280;7137;51.436;6.544;2023-05-24T12:46:53;101945.00;;;17.44;52.94
14117;BME280;7137;51.436;6.544;2023-05-24T12:49:55;101942.75;;;18.39;50.26
14117;BME280;7137;51.436;6.544;2023-05-24T12:52:57;101938.84;;;18.48;47.89
14117;BME280;7137;51.436;6.544;2023-05-24T12:56:00;101940.03;;;17.80;48.63
14117;BME280;7137;51.436;6.544;2023-05-24T12:59:02;101938.75;;;17.68;49.62
14117;BME280;7137;51.436;6.544;2023-05-24T13:02:04;101940.81;;;17.16;48.94
14117;BME280;7137;51.436;6.544;2023-05-24T13:05:07;101937.63;;;17.30;51.54
14117;BME280;7137;51.436;6.544;2023-05-24T13:08:09;101940.72;;;17.19;50.13
14117;BME280;7137;51.436;6.544;2023-05-24T13:11:12;101937.13;;;17.64;50.51
14117;BME280;7137;51.436;6.544;2023-05-24T13:14:14;101937.91;;;17.46;48.75
14117;BME280;7137;51.436;6.544;2023-05-24T13:17:16;101937.44;;;17.13;51.83
14117;BME280;7137;51.436;6.544;2023-05-24T13:20:18;101940.56;;;16.77;50.06
14117;BME280;7137;51.436;6.544;2023-05-24T13:23:21;101940.44;;;17.26;52.27
14117;BME280;7137;51.436;6.544;2023-05-24T13:26:25;101935.34;;;17.65;49.33
14117;BME280;7137;51.436;6.544;2023-05-24T13:29:26;101937.38;;;18.00;49.42
14117;BME280;7137;51.436;6.544;2023-05-24T13:32:28;101939.13;;;18.22;48.16
14117;BME280;7137;51.436;6.544;2023-05-24T13:35:29;101924.59;;;18.51;48.15
14117;BME280;7137;51.436;6.544;2023-05-24T13:38:31;101930.41;;;18.20;49.44
14117;BME280;7137;51.436;6.544;2023-05-24T13:41:34;101929.69;;;18.16;50.05
14117;BME280;7137;51.436;6.544;2023-05-24T13:44:36;101929.25;;;18.25;50.31
14117;BME280;7137;51.436;6.544;2023-05-24T13:47:38;101919.38;;;17.90;49.49
14117;BME280;7137;51.436;6.544;2023-05-24T13:50:39;101924.13;;;18.02;49.69
14117;BME280;7137;51.436;6.544;2023-05-24T13:53:41;101921.53;;;18.00;49.01
14117;BME280;7137;51.436;6.544;2023-05-24T13:56:44;101917.75;;;17.86;49.66
14117;BME280;7137;51.436;6.544;2023-05-24T13:59:48;101915.25;;;17.83;49.00
14117;BME280;7137;51.436;6.544;2023-05-24T14:02:50;101917.56;;;17.90;49.88
14117;BME280;7137;51.436;6.544;2023-05-24T14:05:51;101920.41;;;18.06;49.15
14117;BME280;7137;51.436;6.544;2023-05-24T14:08:53;101921.13;;;18.30;49.14
14117;BME280;7137;51.436;6.544;2023-05-24T14:11:56;101915.44;;;18.58;49.40
14117;BME280;7137;51.436;6.544;2023-05-24T14:14:58;101908.22;;;19.01;48.00
14117;BME280;7137;51.436;6.544;2023-05-24T14:18:00;101909.09;;;18.99;47.49
14117;BME280;7137;51.436;6.544;2023-05-24T14:21:06;101912.13;;;19.11;44.98
14117;BME280;7137;51.436;6.544;2023-05-24T14:24:08;101925.06;;;18.40;47.98
14117;BME280;7137;51.436;6.544;2023-05-24T14:27:11;101919.00;;;18.38;48.49
14117;BME280;7137;51.436;6.544;2023-05-24T14:30:13;101918.50;;;18.69;47.33
14117;BME280;7137;51.436;6.544;2023-05-24T14:33:15;101904.28;;;18.90;48.44
14117;BME280;7137;51.436;6.544;2023-05-24T14:36:17;101910.56;;;18.69;46.02
14117;BME280;7137;51.436;6.544;2023-05-24T14:39:18;101916.09;;;18.63;47.76
14117;BME280;7137;51.436;6.544;2023-05-24T14:42:22;101914.81;;;18.53;45.94
14117;BME280;7137;51.436;6.544;2023-05-24T14:45:23;101899.31;;;18.44;47.60
14117;BME280;7137;51.436;6.544;2023-05-24T14:48:25;101903.88;;;18.60;47.26
14117;BME280;7137;51.436;6.544;2023-05-24T14:51:26;101907.72;;;18.53;47.66
14117;BME280;7137;51.436;6.544;2023-05-24T14:54:28;101907.63;;;18.75;47.79
14117;BME280;7137;51.436;6.544;2023-05-24T14:57:31;101916.75;;;18.29;48.79
14117;BME280;7137;51.436;6.544;2023-05-24T15:00:33;101917.28;;;18.37;48.83
14117;BME280;7137;51.436;6.544;2023-05-24T15:03:35;101914.31;;;17.84;49.02
14117;BME280;7137;51.436;6.544;2023-05-24T15:06:37;101912.13;;;18.14;48.75
14117;BME280;7137;51.436;6.544;2023-05-24T15:09:39;101910.28;;;17.95;49.48
14117;BME280;7137;51.436;6.544;2023-05-24T15:12:42;101907.81;;;17.70;50.67
14117;BME280;7137;51.436;6.544;2023-05-24T15:15:44;101915.78;;;17.91;50.58
14117;BME280;7137;51.436;6.544;2023-05-24T15:18:46;101906.25;;;18.07;49.49
14117;BME280;7137;51.436;6.544;2023-05-24T15:21:47;101913.28;;;18.08;50.20
14117;BME280;7137;51.436;6.544;2023-05-24T15:24:49;101907.34;;;18.42;49.49
14117;BME280;7137;51.436;6.544;2023-05-24T15:27:52;101906.16;;;17.90;50.06
14117;BME280;7137;51.436;6.544;2023-05-24T15:30:54;101905.00;;;18.16;50.47
14117;BME280;7137;51.436;6.544;2023-05-24T15:33:56;101912.34;;;18.09;50.33
14117;BME280;7137;51.436;6.544;2023-05-24T15:36:58;101909.53;;;17.71;50.63
14117;BME280;7137;51.436;6.544;2023-05-24T15:40:00;101914.19;;;17.87;51.55
14117;BME280;7137;51.436;6.544;2023-05-24T15:43:03;101913.06;;;18.13;49.74
14117;BME280;7137;51.436;6.544;2023-05-24T15:46:05;101909.44;;;17.95;49.15
14117;BME280;7137;51.436;6.544;2023-05-24T15:49:06;101904.66;;;17.83;48.75
14117;BME280;7137;51.436;6.544;2023-05-24T15:52:08;101903.56;;;17.88;50.73
14117;BME280;7137;51.436;6.544;2023-05-24T15:55:09;101903.47;;;17.69;50.49
14117;BME280;7137;51.436;6.544;2023-05-24T15:58:12;101897.72;;;17.80;51.09
14117;BME280;7137;51.436;6.544;2023-05-24T16:01:14;101904.16;;;17.95;50.65
14117;BME280;7137;51.436;6.544;2023-05-24T16:04:16;101898.59;;;17.80;51.10
14117;BME280;7137;51.436;6.544;2023-05-24T16:07:19;101894.69;;;17.69;51.02
14117;BME280;7137;51.436;6.544;2023-05-24T16:10:20;101902.78;;;17.64;52.36